sensor_id;sensor_type;location;lat;lon;timestamp;temperature;humidity
46784;DHT22;32544;52.832;13.816;2023-04-24T00:00:42;24.20;47.00
46784;DHT22;32544;52.832;13.816;2023-04-24T00:01:45;24.20;47.00
46784;DHT22;32544;52.832;13.816;2023-04-24T00:02:45;24.20;47.10
46784;DHT22;32544;52.832;13.816;2023-04-24T00:03:47;24.20;47.10
46784;DHT22;32544;52.832;13.816;2023-04-24T00:04:47;24.20;47.00
46784;DHT22;32544;52.832;13.816;2023-04-24T00:05:49;24.20;47.00
46784;DHT22;32544;52.832;13.816;2023-04-24T00:06:50;24.20;47.00
46784;DHT22;32544;52.832;13.816;2023-04-24T00:07:54;24.20;47.00
46784;DHT22;32544;52.832;13.816;2023-04-24T00:08:55;24.10;46.90
46784;DHT22;32544;52.832;13.816;2023-04-24T00:09:56;24.20;47.00
46784;DHT22;32544;52.832;13.816;2023-04-24T00:10:56;24.20;47.00
46784;DHT22;32544;52.832;13.816;2023-04-24T00:11:57;24.20;47.00
46784;DHT22;32544;52.832;13.816;2023-04-24T00:12:57;24.20;47.10
46784;DHT22;32544;52.832;13.816;2023-04-24T00:13:58;24.20;47.10
46784;DHT22;32544;52.832;13.816;2023-04-24T00:14:59;24.20;47.10
46784;DHT22;32544;52.832;13.816;2023-04-24T00:16:00;24.10;46.90
46784;DHT22;32544;52.832;13.816;2023-04-24T00:17:01;24.10;47.00
46784;DHT22;32544;52.832;13.816;2023-04-24T00:18:02;24.10;46.90
46784;DHT22;32544;52.832;13.816;2023-04-24T00:19:03;24.20;47.10
46784;DHT22;32544;52.832;13.816;2023-04-24T00:20:04;24.10;47.10
46784;DHT22;32544;52.832;13.816;2023-04-24T00:21:05;24.20;47.10
46784;DHT22;32544;52.832;13.816;2023-04-24T00:22:05;24.10;47.10
46784;DHT22;32544;52.832;13.816;2023-04-24T00:23:06;24.10;47.00
46784;DHT22;32544;52.832;13.816;2023-04-24T00:24:06;24.20;47.00
46784;DHT22;32544;52.832;13.816;2023-04-24T00:25:09;24.20;47.10
46784;DHT22;32544;52.832;13.816;2023-04-24T00:26:10;24.20;47.10
46784;DHT22;32544;52.832;13.816;2023-04-24T00:27:10;24.20;47.10
46784;DHT22;32544;52.832;13.816;2023-04-24T00:28:11;24.20;47.00
46784;DHT22;32544;52.832;13.816;2023-04-24T00:29:11;24.10;46.90
46784;DHT22;32544;52.832;13.816;2023-04-24T00:30:12;24.20;47.00
46784;DHT22;32544;52.832;13.816;2023-04-24T00:31:12;24.10;46.90
46784;DHT22;32544;52.832;13.816;2023-04-24T00:32:13;24.20;47.00
46784;DHT22;32544;52.832;13.816;2023-04-24T00:33:14;24.20;47.00
46784;DHT22;32544;52.832;13.816;2023-04-24T00:34:15;24.20;46.90
46784;DHT22;32544;52.832;13.816;2023-04-24T00:35:16;24.20;46.90
46784;DHT22;32544;52.832;13.816;2023-04-24T00:36:16;24.20;46.90
46784;DHT22;32544;52.832;13.816;2023-04-24T00:37:19;24.10;46.90
46784;DHT22;32544;52.832;13.816;2023-04-24T00:38:20;24.20;46.90
46784;DHT22;32544;52.832;13.816;2023-04-24T00:39:21;24.20;46.90
46784;DHT22;32544;52.832;13.816;2023-04-24T00:40:23;24.20;46.90
46784;DHT22;32544;52.832;13.816;2023-04-24T00:41:26;24.20;46.90
46784;DHT22;32544;52.832;13.816;2023-04-24T00:42:27;24.20;46.90
46784;DHT22;32544;52.832;13.816;2023-04-24T00:43:27;24.20;46.90
46784;DHT22;32544;52.832;13.816;2023-04-24T00:44:28;24.10;46.90
46784;DHT22;32544;52.832;13.816;2023-04-24T00:45:29;24.10;46.80
46784;DHT22;32544;52.832;13.816;2023-04-24T00:46:31;24.20;46.90
46784;DHT22;32544;52.832;13.816;2023-04-24T00:47:33;24.20;46.80
46784;DHT22;32544;52.832;13.816;2023-04-24T00:48:34;24.20;46.80
46784;DHT22;32544;52.832;13.816;2023-04-24T00:49:35;24.20;46.80
46784;DHT22;32544;52.832;13.816;2023-04-24T00:50:35;24.10;47.00
46784;DHT22;32544;52.832;13.816;2023-04-24T00:51:36;24.20;46.80
46784;DHT22;32544;52.832;13.816;2023-04-24T00:52:37;24.10;46.80
46784;DHT22;32544;52.832;13.816;2023-04-24T00:53:37;24.20;46.90
46784;DHT22;32544;52.832;13.816;2023-04-24T00:54:38;24.20;46.90
46784;DHT22;32544;52.832;13.816;2023-04-24T00:55:38;24.10;46.80
46784;DHT22;32544;52.832;13.816;2023-04-24T00:56:39;24.20;46.80
46784;DHT22;32544;52.832;13.816;2023-04-24T00:57:40;24.10;46.80
46784;DHT22;32544;52.832;13.816;2023-04-24T00:58:41;24.10;46.80
46784;DHT22;32544;52.832;13.816;2023-04-24T00:59:42;24.10;46.80
46784;DHT22;32544;52.832;13.816;2023-04-24T01:00:43;24.10;46.80
46784;DHT22;32544;52.832;13.816;2023-04-24T01:01:44;24.10;46.70
46784;DHT22;32544;52.832;13.816;2023-04-24T01:02:45;24.20;46.70
46784;DHT22;32544;52.832;13.816;2023-04-24T01:03:46;24.10;46.60
46784;DHT22;32544;52.832;13.816;2023-04-24T01:04:47;24.20;46.60
46784;DHT22;32544;52.832;13.816;2023-04-24T01:05:49;24.20;46.50
46784;DHT22;32544;52.832;13.816;2023-04-24T01:06:50;24.10;46.50
46784;DHT22;32544;52.832;13.816;2023-04-24T01:07:52;24.10;46.50
46784;DHT22;32544;52.832;13.816;2023-04-24T01:08:52;24.10;46.50
46784;DHT22;32544;52.832;13.816;2023-04-24T01:09:53;24.10;46.50
46784;DHT22;32544;52.832;13.816;2023-04-24T01:10:53;24.10;46.60
46784;DHT22;32544;52.832;13.816;2023-04-24T01:11:54;24.10;46.60
46784;DHT22;32544;52.832;13.816;2023-04-24T01:12:54;24.10;46.60
46784;DHT22;32544;52.832;13.816;2023-04-24T01:13:56;24.10;46.60
46784;DHT22;32544;52.832;13.816;2023-04-24T01:14:56;24.00;46.60
46784;DHT22;32544;52.832;13.816;2023-04-24T01:15:57;24.00;46.60
46784;DHT22;32544;52.832;13.816;2023-04-24T01:16:58;24.10;46.70
46784;DHT22;32544;52.832;13.816;2023-04-24T01:17:58;24.00;46.70
46784;DHT22;32544;52.832;13.816;2023-04-24T01:18:59;24.00;46.70
46784;DHT22;32544;52.832;13.816;2023-04-24T01:19:59;24.00;46.70
46784;DHT22;32544;52.832;13.816;2023-04-24T01:21:02;24.00;46.80
46784;DHT22;32544;52.832;13.816;2023-04-24T01:22:12;24.00;46.80
46784;DHT22;32544;52.832;13.816;2023-04-24T01:25:16;24.00;46.90
46784;DHT22;32544;52.832;13.816;2023-04-24T01:26:17;24.00;46.90
46784;DHT22;32544;52.832;13.816;2023-04-24T01:27:19;23.90;46.90
46784;DHT22;32544;52.832;13.816;2023-04-24T01:28:20;23.90;46.90
46784;DHT22;32544;52.832;13.816;2023-04-24T01:29:21;23.90;47.00
46784;DHT22;32544;52.832;13.816;2023-04-24T01:30:21;23.90;47.00
46784;DHT22;32544;52.832;13.816;2023-04-24T01:31:22;23.90;47.00
46784;DHT22;32544;52.832;13.816;2023-04-24T01:32:23;23.90;47.00
46784;DHT22;32544;52.832;13.816;2023-04-24T01:33:24;23.90;47.00
46784;DHT22;32544;52.832;13.816;2023-04-24T01:34:25;23.90;47.00
46784;DHT22;32544;52.832;13.816;2023-04-24T01:35:26;23.90;47.00
46784;DHT22;32544;52.832;13.816;2023-04-24T01:36:26;23.90;47.00
46784;DHT22;32544;52.832;13.816;2023-04-24T01:37:27;23.90;47.10
46784;DHT22;32544;52.832;13.816;2023-04-24T01:38:28;23.90;47.00
46784;DHT22;32544;52.832;13.816;2023-04-24T01:39:28;23.90;47.10
46784;DHT22;32544;52.832;13.816;2023-04-24T01:40:29;23.90;47.10
46784;DHT22;32544;52.832;13.816;2023-04-24T01:41:32;23.80;47.00
46784;DHT22;32544;52.832;13.816;2023-04-24T01:42:32;23.90;47.10
46784;DHT22;32544;52.832;13.816;2023-04-24T01:43:33;23.90;47.10
46784;DHT22;32544;52.832;13.816;2023-04-24T01:44:34;23.80;47.10
46784;DHT22;32544;52.832;13.816;2023-04-24T01:45:34;23.80;47.10
46784;DHT22;32544;52.832;13.816;2023-04-24T01:46:38;23.80;47.10
46784;DHT22;32544;52.832;13.816;2023-04-24T01:47:38;23.80;47.10
46784;DHT22;32544;52.832;13.816;2023-04-24T01:48:39;23.80;47.10
46784;DHT22;32544;52.832;13.816;2023-04-24T01:49:40;23.80;47.20
46784;DHT22;32544;52.832;13.816;2023-04-24T01:50:41;23.80;47.20
46784;DHT22;32544;52.832;13.816;2023-04-24T01:51:41;23.80;47.20
46784;DHT22;32544;52.832;13.816;2023-04-24T01:52:42;23.70;47.10
46784;DHT22;32544;52.832;13.816;2023-04-24T01:53:43;23.80;47.20
46784;DHT22;32544;52.832;13.816;2023-04-24T01:54:44;23.80;47.20
46784;DHT22;32544;52.832;13.816;2023-04-24T01:55:45;23.70;47.10
46784;DHT22;32544;52.832;13.816;2023-04-24T01:56:47;23.80;47.20
46784;DHT22;32544;52.832;13.816;2023-04-24T01:57:47;23.70;47.10
46784;DHT22;32544;52.832;13.816;2023-04-24T01:58:52;23.80;47.30
46784;DHT22;32544;52.832;13.816;2023-04-24T01:59:53;23.70;47.10
46784;DHT22;32544;52.832;13.816;2023-04-24T02:00:55;23.70;47.20
46784;DHT22;32544;52.832;13.816;2023-04-24T02:01:56;23.80;47.30
46784;DHT22;32544;52.832;13.816;2023-04-24T02:02:57;23.80;47.20
46784;DHT22;32544;52.832;13.816;2023-04-24T02:03:59;23.70;47.10
46784;DHT22;32544;52.832;13.816;2023-04-24T02:05:00;23.70;47.90
46784;DHT22;32544;52.832;13.816;2023-04-24T02:06:01;23.70;47.10
46784;DHT22;32544;52.832;13.816;2023-04-24T02:07:02;23.70;47.10
46784;DHT22;32544;52.832;13.816;2023-04-24T02:08:02;23.70;47.20
46784;DHT22;32544;52.832;13.816;2023-04-24T02:09:03;23.70;47.20
46784;DHT22;32544;52.832;13.816;2023-04-24T02:10:03;23.70;47.30
46784;DHT22;32544;52.832;13.816;2023-04-24T02:11:05;23.70;47.20
46784;DHT22;32544;52.832;13.816;2023-04-24T02:12:06;23.70;47.20
46784;DHT22;32544;52.832;13.816;2023-04-24T02:13:06;23.70;47.20
46784;DHT22;32544;52.832;13.816;2023-04-24T02:14:07;23.70;47.20
46784;DHT22;32544;52.832;13.816;2023-04-24T02:15:08;23.70;47.20
46784;DHT22;32544;52.832;13.816;2023-04-24T02:16:11;23.70;47.20
46784;DHT22;32544;52.832;13.816;2023-04-24T02:17:11;23.70;47.30
46784;DHT22;32544;52.832;13.816;2023-04-24T02:18:12;23.70;47.30
46784;DHT22;32544;52.832;13.816;2023-04-24T02:19:13;23.70;47.30
46784;DHT22;32544;52.832;13.816;2023-04-24T02:20:13;23.70;47.30
46784;DHT22;32544;52.832;13.816;2023-04-24T02:21:14;23.70;47.30
46784;DHT22;32544;52.832;13.816;2023-04-24T02:22:15;23.70;47.30
46784;DHT22;32544;52.832;13.816;2023-04-24T02:23:16;23.70;47.30
46784;DHT22;32544;52.832;13.816;2023-04-24T02:24:17;23.70;47.20
46784;DHT22;32544;52.832;13.816;2023-04-24T02:25:17;23.70;47.30
46784;DHT22;32544;52.832;13.816;2023-04-24T02:26:18;23.70;47.30
46784;DHT22;32544;52.832;13.816;2023-04-24T02:27:18;23.70;47.30
46784;DHT22;32544;52.832;13.816;2023-04-24T02:28:19;23.70;47.30
46784;DHT22;32544;52.832;13.816;2023-04-24T02:29:20;23.70;47.30
46784;DHT22;32544;52.832;13.816;2023-04-24T02:30:20;23.70;47.30
46784;DHT22;32544;52.832;13.816;2023-04-24T02:31:21;23.70;47.30
46784;DHT22;32544;52.832;13.816;2023-04-24T02:32:22;23.70;47.30
46784;DHT22;32544;52.832;13.816;2023-04-24T02:33:22;23.70;47.30
46784;DHT22;32544;52.832;13.816;2023-04-24T02:34:23;23.70;47.30
46784;DHT22;32544;52.832;13.816;2023-04-24T02:35:23;23.70;47.30
46784;DHT22;32544;52.832;13.816;2023-04-24T02:36:24;23.70;47.30
46784;DHT22;32544;52.832;13.816;2023-04-24T02:37:24;23.70;47.30
46784;DHT22;32544;52.832;13.816;2023-04-24T02:38:25;23.70;47.30
46784;DHT22;32544;52.832;13.816;2023-04-24T02:39:25;23.60;47.20
46784;DHT22;32544;52.832;13.816;2023-04-24T02:40:26;23.60;47.20
46784;DHT22;32544;52.832;13.816;2023-04-24T02:41:27;23.60;47.20
46784;DHT22;32544;52.832;13.816;2023-04-24T02:42:32;23.70;47.30
46784;DHT22;32544;52.832;13.816;2023-04-24T02:43:32;23.60;47.30
46784;DHT22;32544;52.832;13.816;2023-04-24T02:44:33;23.60;47.30
46784;DHT22;32544;52.832;13.816;2023-04-24T02:45:34;23.60;47.30
46784;DHT22;32544;52.832;13.816;2023-04-24T02:46:35;23.60;47.20
46784;DHT22;32544;52.832;13.816;2023-04-24T02:47:35;23.60;47.20
46784;DHT22;32544;52.832;13.816;2023-04-24T02:48:36;23.60;47.20
46784;DHT22;32544;52.832;13.816;2023-04-24T02:49:36;23.60;47.20
46784;DHT22;32544;52.832;13.816;2023-04-24T02:50:37;23.60;47.20
46784;DHT22;32544;52.832;13.816;2023-04-24T02:51:37;23.60;47.20
46784;DHT22;32544;52.832;13.816;2023-04-24T02:52:41;23.60;47.30
46784;DHT22;32544;52.832;13.816;2023-04-24T02:53:41;23.60;47.30
46784;DHT22;32544;52.832;13.816;2023-04-24T02:54:42;23.60;47.30
46784;DHT22;32544;52.832;13.816;2023-04-24T02:55:43;23.60;47.30
46784;DHT22;32544;52.832;13.816;2023-04-24T02:56:44;23.60;47.30
46784;DHT22;32544;52.832;13.816;2023-04-24T02:57:44;23.60;47.30
46784;DHT22;32544;52.832;13.816;2023-04-24T02:58:45;23.60;47.30
46784;DHT22;32544;52.832;13.816;2023-04-24T02:59:45;23.60;47.20
46784;DHT22;32544;52.832;13.816;2023-04-24T03:00:46;23.60;47.30
46784;DHT22;32544;52.832;13.816;2023-04-24T03:01:47;23.60;47.30
46784;DHT22;32544;52.832;13.816;2023-04-24T03:02:48;23.60;47.30
46784;DHT22;32544;52.832;13.816;2023-04-24T03:03:49;23.60;47.30
46784;DHT22;32544;52.832;13.816;2023-04-24T03:04:50;23.60;47.30
46784;DHT22;32544;52.832;13.816;2023-04-24T03:05:50;23.60;47.30
46784;DHT22;32544;52.832;13.816;2023-04-24T03:06:52;23.60;47.30
46784;DHT22;32544;52.832;13.816;2023-04-24T03:07:55;23.60;47.30
46784;DHT22;32544;52.832;13.816;2023-04-24T03:08:55;23.60;47.30
46784;DHT22;32544;52.832;13.816;2023-04-24T03:09:56;23.60;47.30
46784;DHT22;32544;52.832;13.816;2023-04-24T03:10:58;23.60;47.30
46784;DHT22;32544;52.832;13.816;2023-04-24T03:11:58;23.60;47.30
46784;DHT22;32544;52.832;13.816;2023-04-24T03:12:59;23.60;47.30
46784;DHT22;32544;52.832;13.816;2023-04-24T03:13:59;23.60;47.30
46784;DHT22;32544;52.832;13.816;2023-04-24T03:15:00;23.60;47.30
46784;DHT22;32544;52.832;13.816;2023-04-24T03:16:01;23.60;47.30
46784;DHT22;32544;52.832;13.816;2023-04-24T03:17:02;23.60;47.30
46784;DHT22;32544;52.832;13.816;2023-04-24T03:18:02;23.60;47.30
46784;DHT22;32544;52.832;13.816;2023-04-24T03:19:03;23.60;47.20
46784;DHT22;32544;52.832;13.816;2023-04-24T03:20:07;23.60;47.30
46784;DHT22;32544;52.832;13.816;2023-04-24T03:21:09;23.60;47.30
46784;DHT22;32544;52.832;13.816;2023-04-24T03:22:10;23.60;47.30
46784;DHT22;32544;52.832;13.816;2023-04-24T03:23:13;23.60;47.30
46784;DHT22;32544;52.832;13.816;2023-04-24T03:24:14;23.60;47.30
46784;DHT22;32544;52.832;13.816;2023-04-24T03:25:15;23.60;47.20
46784;DHT22;32544;52.832;13.816;2023-04-24T03:26:15;23.60;47.20
46784;DHT22;32544;52.832;13.816;2023-04-24T03:27:27;23.60;47.20
46784;DHT22;32544;52.832;13.816;2023-04-24T03:28:35;23.60;47.30
46784;DHT22;32544;52.832;13.816;2023-04-24T03:29:38;23.60;47.20
46784;DHT22;32544;52.832;13.816;2023-04-24T03:30:38;23.60;47.20
46784;DHT22;32544;52.832;13.816;2023-04-24T03:31:41;23.60;47.20
46784;DHT22;32544;52.832;13.816;2023-04-24T03:32:41;23.60;47.20
46784;DHT22;32544;52.832;13.816;2023-04-24T03:33:45;23.60;47.20
46784;DHT22;32544;52.832;13.816;2023-04-24T03:34:45;23.60;47.30
46784;DHT22;32544;52.832;13.816;2023-04-24T03:35:48;23.60;47.20
46784;DHT22;32544;52.832;13.816;2023-04-24T03:36:49;23.60;47.30
46784;DHT22;32544;52.832;13.816;2023-04-24T03:37:49;23.60;47.30
46784;DHT22;32544;52.832;13.816;2023-04-24T03:39:29;23.60;47.20
46784;DHT22;32544;52.832;13.816;2023-04-24T03:40:30;23.60;47.30
46784;DHT22;32544;52.832;13.816;2023-04-24T03:41:33;23.60;47.20
46784;DHT22;32544;52.832;13.816;2023-04-24T03:42:51;23.60;47.30
46784;DHT22;32544;52.832;13.816;2023-04-24T03:43:53;23.60;47.30
46784;DHT22;32544;52.832;13.816;2023-04-24T03:44:54;23.60;47.30
46784;DHT22;32544;52.832;13.816;2023-04-24T03:45:57;23.60;47.30
46784;DHT22;32544;52.832;13.816;2023-04-24T03:46:58;23.60;47.30
46784;DHT22;32544;52.832;13.816;2023-04-24T03:47:59;23.60;47.30
46784;DHT22;32544;52.832;13.816;2023-04-24T03:49:00;23.60;47.30
46784;DHT22;32544;52.832;13.816;2023-04-24T03:50:05;23.60;47.30
46784;DHT22;32544;52.832;13.816;2023-04-24T03:51:06;23.60;47.20
46784;DHT22;32544;52.832;13.816;2023-04-24T03:52:09;23.60;47.30
46784;DHT22;32544;52.832;13.816;2023-04-24T03:53:10;23.60;47.20
46784;DHT22;32544;52.832;13.816;2023-04-24T03:54:13;23.60;47.20
46784;DHT22;32544;52.832;13.816;2023-04-24T03:55:14;23.60;47.30
46784;DHT22;32544;52.832;13.816;2023-04-24T03:56:19;23.60;47.20
46784;DHT22;32544;52.832;13.816;2023-04-24T03:57:21;23.60;47.20
46784;DHT22;32544;52.832;13.816;2023-04-24T03:58:34;23.60;47.30
46784;DHT22;32544;52.832;13.816;2023-04-24T03:59:35;23.60;47.20
46784;DHT22;32544;52.832;13.816;2023-04-24T04:00:44;23.60;47.20
46784;DHT22;32544;52.832;13.816;2023-04-24T04:02:05;23.60;47.20
46784;DHT22;32544;52.832;13.816;2023-04-24T04:03:06;23.60;47.20
46784;DHT22;32544;52.832;13.816;2023-04-24T04:04:06;23.60;47.20
46784;DHT22;32544;52.832;13.816;2023-04-24T04:05:09;23.60;47.20
46784;DHT22;32544;52.832;13.816;2023-04-24T04:06:10;23.60;47.20
46784;DHT22;32544;52.832;13.816;2023-04-24T04:07:12;23.60;47.20
46784;DHT22;32544;52.832;13.816;2023-04-24T04:08:13;23.60;47.90
46784;DHT22;32544;52.832;13.816;2023-04-24T04:09:14;23.60;47.20
46784;DHT22;32544;52.832;13.816;2023-04-24T04:10:14;23.60;47.20
46784;DHT22;32544;52.832;13.816;2023-04-24T04:11:15;23.60;47.20
46784;DHT22;32544;52.832;13.816;2023-04-24T04:12:15;23.60;47.20
46784;DHT22;32544;52.832;13.816;2023-04-24T04:13:17;23.60;47.20
46784;DHT22;32544;52.832;13.816;2023-04-24T04:14:18;23.60;47.30
46784;DHT22;32544;52.832;13.816;2023-04-24T04:15:21;23.60;47.30
46784;DHT22;32544;52.832;13.816;2023-04-24T04:16:24;23.60;47.20
46784;DHT22;32544;52.832;13.816;2023-04-24T04:17:29;23.50;47.20
46784;DHT22;32544;52.832;13.816;2023-04-24T04:18:30;23.60;47.20
46784;DHT22;32544;52.832;13.816;2023-04-24T04:19:31;23.60;47.30
46784;DHT22;32544;52.832;13.816;2023-04-24T04:20:31;23.60;47.20
46784;DHT22;32544;52.832;13.816;2023-04-24T04:21:32;23.50;47.20
46784;DHT22;32544;52.832;13.816;2023-04-24T04:22:46;23.50;47.20
46784;DHT22;32544;52.832;13.816;2023-04-24T04:23:51;23.60;47.20
46784;DHT22;32544;52.832;13.816;2023-04-24T04:25:00;23.60;47.20
46784;DHT22;32544;52.832;13.816;2023-04-24T04:26:03;23.60;47.20
46784;DHT22;32544;52.832;13.816;2023-04-24T04:27:16;23.60;47.30
46784;DHT22;32544;52.832;13.816;2023-04-24T04:28:34;23.50;47.20
46784;DHT22;32544;52.832;13.816;2023-04-24T04:29:35;23.60;47.20
46784;DHT22;32544;52.832;13.816;2023-04-24T04:30:39;23.50;47.20
46784;DHT22;32544;52.832;13.816;2023-04-24T04:31:40;23.60;47.30
46784;DHT22;32544;52.832;13.816;2023-04-24T04:32:45;23.60;47.30
46784;DHT22;32544;52.832;13.816;2023-04-24T04:33:45;23.50;47.20
46784;DHT22;32544;52.832;13.816;2023-04-24T04:34:46;23.50;47.20
46784;DHT22;32544;52.832;13.816;2023-04-24T04:35:47;23.50;47.20
46784;DHT22;32544;52.832;13.816;2023-04-24T04:36:52;23.50;47.20
46784;DHT22;32544;52.832;13.816;2023-04-24T04:38:06;23.50;47.20
46784;DHT22;32544;52.832;13.816;2023-04-24T04:39:26;23.60;47.20
46784;DHT22;32544;52.832;13.816;2023-04-24T04:40:35;23.50;47.20
46784;DHT22;32544;52.832;13.816;2023-04-24T04:41:38;23.50;47.20
46784;DHT22;32544;52.832;13.816;2023-04-24T04:42:40;23.50;47.20
46784;DHT22;32544;52.832;13.816;2023-04-24T04:43:41;23.50;47.20
46784;DHT22;32544;52.832;13.816;2023-04-24T04:44:43;23.60;47.30
46784;DHT22;32544;52.832;13.816;2023-04-24T04:45:50;23.50;47.20
46784;DHT22;32544;52.832;13.816;2023-04-24T04:47:09;23.50;47.20
46784;DHT22;32544;52.832;13.816;2023-04-24T04:48:11;23.50;47.20
46784;DHT22;32544;52.832;13.816;2023-04-24T04:49:14;23.50;47.20
46784;DHT22;32544;52.832;13.816;2023-04-24T04:50:16;23.50;47.20
46784;DHT22;32544;52.832;13.816;2023-04-24T04:51:20;23.50;47.20
46784;DHT22;32544;52.832;13.816;2023-04-24T04:52:21;23.50;47.20
46784;DHT22;32544;52.832;13.816;2023-04-24T04:53:28;23.50;47.20
46784;DHT22;32544;52.832;13.816;2023-04-24T04:54:29;23.50;47.20
46784;DHT22;32544;52.832;13.816;2023-04-24T04:55:31;23.50;47.20
46784;DHT22;32544;52.832;13.816;2023-04-24T04:56:42;23.50;47.20
46784;DHT22;32544;52.832;13.816;2023-04-24T04:57:43;23.50;47.20
46784;DHT22;32544;52.832;13.816;2023-04-24T04:58:44;23.50;47.20
46784;DHT22;32544;52.832;13.816;2023-04-24T04:59:48;23.50;47.20
46784;DHT22;32544;52.832;13.816;2023-04-24T05:00:57;23.50;47.20
46784;DHT22;32544;52.832;13.816;2023-04-24T05:02:02;23.50;47.20
46784;DHT22;32544;52.832;13.816;2023-04-24T05:03:04;23.50;47.20
46784;DHT22;32544;52.832;13.816;2023-04-24T05:04:05;23.50;47.20
46784;DHT22;32544;52.832;13.816;2023-04-24T05:05:06;23.50;47.20
46784;DHT22;32544;52.832;13.816;2023-04-24T05:06:07;23.50;47.20
46784;DHT22;32544;52.832;13.816;2023-04-24T05:07:10;23.50;47.20
46784;DHT22;32544;52.832;13.816;2023-04-24T05:08:14;23.50;47.20
46784;DHT22;32544;52.832;13.816;2023-04-24T05:09:14;23.50;47.20
46784;DHT22;32544;52.832;13.816;2023-04-24T05:10:23;23.50;47.30
46784;DHT22;32544;52.832;13.816;2023-04-24T05:11:26;23.50;47.20
46784;DHT22;32544;52.832;13.816;2023-04-24T05:12:28;23.50;47.20
46784;DHT22;32544;52.832;13.816;2023-04-24T05:13:28;23.50;47.20
46784;DHT22;32544;52.832;13.816;2023-04-24T05:14:30;23.50;47.20
46784;DHT22;32544;52.832;13.816;2023-04-24T05:15:30;23.50;47.20
46784;DHT22;32544;52.832;13.816;2023-04-24T05:16:32;23.50;47.20
46784;DHT22;32544;52.832;13.816;2023-04-24T05:17:33;23.50;47.20
46784;DHT22;32544;52.832;13.816;2023-04-24T05:18:33;23.50;47.20
46784;DHT22;32544;52.832;13.816;2023-04-24T05:19:35;23.50;47.80
46784;DHT22;32544;52.832;13.816;2023-04-24T05:20:38;23.50;47.20
46784;DHT22;32544;52.832;13.816;2023-04-24T05:21:38;23.50;47.20
46784;DHT22;32544;52.832;13.816;2023-04-24T05:22:39;23.50;47.20
46784;DHT22;32544;52.832;13.816;2023-04-24T05:23:41;23.50;47.20
46784;DHT22;32544;52.832;13.816;2023-04-24T05:24:41;23.50;47.20
46784;DHT22;32544;52.832;13.816;2023-04-24T05:25:54;23.50;47.20
46784;DHT22;32544;52.832;13.816;2023-04-24T05:26:55;23.50;47.20
46784;DHT22;32544;52.832;13.816;2023-04-24T05:28:00;23.50;47.20
46784;DHT22;32544;52.832;13.816;2023-04-24T05:29:01;23.50;47.20
46784;DHT22;32544;52.832;13.816;2023-04-24T05:30:01;23.50;47.20
46784;DHT22;32544;52.832;13.816;2023-04-24T05:31:03;23.50;47.20
46784;DHT22;32544;52.832;13.816;2023-04-24T05:32:04;23.50;47.20
46784;DHT22;32544;52.832;13.816;2023-04-24T05:33:05;23.50;47.20
46784;DHT22;32544;52.832;13.816;2023-04-24T05:34:08;23.50;47.20
46784;DHT22;32544;52.832;13.816;2023-04-24T05:35:14;23.50;47.20
46784;DHT22;32544;52.832;13.816;2023-04-24T05:36:14;23.50;47.20
46784;DHT22;32544;52.832;13.816;2023-04-24T05:37:15;23.50;47.20
46784;DHT22;32544;52.832;13.816;2023-04-24T05:38:16;23.50;47.20
46784;DHT22;32544;52.832;13.816;2023-04-24T05:39:20;23.50;47.20
46784;DHT22;32544;52.832;13.816;2023-04-24T05:40:20;23.50;47.20
46784;DHT22;32544;52.832;13.816;2023-04-24T05:41:22;23.50;47.20
46784;DHT22;32544;52.832;13.816;2023-04-24T05:42:23;23.50;47.20
46784;DHT22;32544;52.832;13.816;2023-04-24T05:43:24;23.50;47.20
46784;DHT22;32544;52.832;13.816;2023-04-24T05:44:25;23.50;47.20
46784;DHT22;32544;52.832;13.816;2023-04-24T05:45:26;23.50;47.20
46784;DHT22;32544;52.832;13.816;2023-04-24T05:46:27;23.50;47.20
46784;DHT22;32544;52.832;13.816;2023-04-24T05:47:29;23.50;47.20
46784;DHT22;32544;52.832;13.816;2023-04-24T05:48:29;23.50;47.20
46784;DHT22;32544;52.832;13.816;2023-04-24T05:49:31;23.50;47.20
46784;DHT22;32544;52.832;13.816;2023-04-24T05:50:31;23.50;47.20
46784;DHT22;32544;52.832;13.816;2023-04-24T05:51:32;23.50;47.20
46784;DHT22;32544;52.832;13.816;2023-04-24T05:52:33;23.50;47.20
46784;DHT22;32544;52.832;13.816;2023-04-24T05:53:36;23.50;47.20
46784;DHT22;32544;52.832;13.816;2023-04-24T05:54:37;23.50;47.20
46784;DHT22;32544;52.832;13.816;2023-04-24T05:55:38;23.50;47.20
46784;DHT22;32544;52.832;13.816;2023-04-24T05:56:39;23.50;47.20
46784;DHT22;32544;52.832;13.816;2023-04-24T05:57:40;23.50;47.20
46784;DHT22;32544;52.832;13.816;2023-04-24T05:58:41;23.50;47.20
46784;DHT22;32544;52.832;13.816;2023-04-24T05:59:42;23.50;47.20
46784;DHT22;32544;52.832;13.816;2023-04-24T06:00:42;23.50;47.20
46784;DHT22;32544;52.832;13.816;2023-04-24T06:01:43;23.50;47.20
46784;DHT22;32544;52.832;13.816;2023-04-24T06:02:49;23.50;47.20
46784;DHT22;32544;52.832;13.816;2023-04-24T06:03:50;23.50;47.20
46784;DHT22;32544;52.832;13.816;2023-04-24T06:04:50;23.50;47.20
46784;DHT22;32544;52.832;13.816;2023-04-24T06:05:52;23.50;47.20
46784;DHT22;32544;52.832;13.816;2023-04-24T06:06:52;23.50;47.20
46784;DHT22;32544;52.832;13.816;2023-04-24T06:07:56;23.50;47.20
46784;DHT22;32544;52.832;13.816;2023-04-24T06:08:59;23.50;47.20
46784;DHT22;32544;52.832;13.816;2023-04-24T06:10:00;23.50;47.20
46784;DHT22;32544;52.832;13.816;2023-04-24T06:11:02;23.50;47.20
46784;DHT22;32544;52.832;13.816;2023-04-24T06:12:03;23.50;47.20
46784;DHT22;32544;52.832;13.816;2023-04-24T06:13:18;23.50;47.20
46784;DHT22;32544;52.832;13.816;2023-04-24T06:14:34;23.50;47.20
46784;DHT22;32544;52.832;13.816;2023-04-24T06:15:54;23.50;47.20
46784;DHT22;32544;52.832;13.816;2023-04-24T06:17:03;23.50;47.20
46784;DHT22;32544;52.832;13.816;2023-04-24T06:18:11;23.50;47.20
46784;DHT22;32544;52.832;13.816;2023-04-24T06:19:14;23.50;47.20
46784;DHT22;32544;52.832;13.816;2023-04-24T06:20:15;23.50;47.20
46784;DHT22;32544;52.832;13.816;2023-04-24T06:21:16;23.50;47.20
46784;DHT22;32544;52.832;13.816;2023-04-24T06:22:16;23.50;47.20
46784;DHT22;32544;52.832;13.816;2023-04-24T06:23:17;23.50;47.20
46784;DHT22;32544;52.832;13.816;2023-04-24T06:24:17;23.50;47.20
46784;DHT22;32544;52.832;13.816;2023-04-24T06:25:18;23.50;47.20
46784;DHT22;32544;52.832;13.816;2023-04-24T06:26:19;23.50;47.20
46784;DHT22;32544;52.832;13.816;2023-04-24T06:27:20;23.50;47.20
46784;DHT22;32544;52.832;13.816;2023-04-24T06:28:20;23.50;47.20